Flight Track Log - Related Links

Times and Time Zones

All times are in EDT time to prevent confusion due to time zone crossing. See the UAL4202 flight status page for this flight to view local times or setup timezone preferences in your user account.

Time Position Orientation Groundspeed Altitude Reporting Facility
EDT Latitude Longitude Course Direction KTS MPH feet Rate Location/Type
Sun 05:26:15 PM 40.7167 -74.1500 49° Northeast 170 196 1,300  Level New York TRACON
Sun 05:27:15 PM 40.7500 -74.1000 49° Northeast 213 245 3,300 1,900 Climbing New York TRACON
Sun 05:28:15 PM 40.7833 -74.1333 323° Northwest 234 269 5,100 2,200 Climbing New York TRACON
Sun 05:29:15 PM 40.7667 -74.2167 255° West 238 274 7,700 1,650 Climbing New York TRACON
Sun 05:30:15 PM 40.7500 -74.2833 252° West 232 267 8,400 1,466 Climbing New York TRACON
Sun 05:32:11 PM 40.7589 -74.4339 275° West 224 258 12,000 1,661 Climbing New York Center
Sun 05:33:12 PM 40.7733 -74.5114 284° West 234 269 13,300 1,190 Climbing New York Center
Sun 05:34:12 PM 40.7781 -74.6158 273° West 260 299 14,400 915 Climbing New York Center
Sun 05:35:10 PM 40.7831 -74.7231 274° West 282 325 15,100 750 Climbing New York Center
Sun 05:36:12 PM 40.7894 -74.8383 274° West 314 361 15,900 976 Climbing New York Center
Sun 05:37:13 PM 40.7958 -74.9567 274° West 319 367 17,100 966 Climbing New York Center
Sun 05:38:10 PM 40.7811 -75.0736 261° West 319 367 17,800 915 Climbing New York Center
Sun 05:39:11 PM 40.7547 -75.1653 249° West 331 381 18,900 1,328 Climbing New York Center
Sun 05:40:12 PM 40.7147 -75.2858 246° West 336 387 20,500 1,525 Climbing New York Center
Sun 05:41:13 PM 40.6833 -75.3986 250° West 336 387 22,000 1,513 Climbing New York Center
Sun 05:42:11 PM 40.6500 -75.5086 248° West 336 387 23,500 1,475 Climbing New York Center
Sun 05:43:11 PM 40.6164 -75.6156 248° West 331 381 24,900 1,240 Climbing New York Center
Sun 05:44:12 PM 40.5847 -75.7281 250° West 326 375 26,000 1,050 Climbing New York Center
Sun 05:45:11 PM 40.5486 -75.8375 247° West 326 375 27,000 1,050 Climbing New York Center
Sun 05:46:12 PM 40.5078 -75.9628 247° West 326 375 28,100 1,041 Climbing New York Center
Sun 05:47:12 PM 40.4736 -76.0750 248° West 326 375 29,100 966 Climbing New York Center
Sun 05:48:10 PM 40.4372 -76.1867 247° West 332 382 30,000 458 Climbing New York Center
Sun 05:49:10 PM 40.4006 -76.3064 248° West 343 395 30,000  Level New York Center
Sun 05:50:10 PM 40.3636 -76.4261 248° West 355 409 30,000  Level New York Center
Sun 05:51:11 PM 40.3222 -76.5481 246° West 360 414 30,000  Level New York Center
Sun 05:52:11 PM 40.2747 -76.6636 242° Southwest 365 420 30,000  Level New York Center
Sun 05:53:12 PM 40.2294 -76.7767 242° Southwest 365 420 30,000  Level New York Center
Sun 05:54:12 PM 40.1819 -76.8894 241° Southwest 359 413 30,000  Level New York Center
Sun 05:55:12 PM 40.1631 -77.0128 259° West 347 399 30,000  Level New York Center
Sun 05:56:10 PM 40.1628 -77.1350 270° West 347 399 30,000  Level New York Center
Sun 05:57:10 PM 40.1578 -77.2650 267° West 352 405 30,000  Level New York Center
Sun 05:58:59 PM 40.1583 -77.4833 270° West 353 406 30,000  Level Cleveland Center
Sun 05:59:59 PM 40.1533 -77.6114 267° West 353 406 30,000 600 Level Cleveland Center
Sun 06:00:59 PM 40.1506 -77.7472 269° West 346 398 31,200 1,000 Climbing Cleveland Center
Sun 06:01:59 PM 40.1472 -77.8589 268° West 332 382 32,000 400 Climbing Cleveland Center
Sun 06:02:59 PM 40.1394 -77.9731 265° West 327 376 32,000 600 Level Cleveland Center
Sun 06:03:59 PM 40.1358 -78.0900 268° West 327 376 33,200 1,300 Climbing Cleveland Center
Sun 06:04:59 PM 40.1319 -78.1989 267° West 322 371 34,600 1,350 Climbing Cleveland Center
Sun 06:05:59 PM 40.1300 -78.3075 269° West 311 358 35,900 700 Climbing Cleveland Center
Sun 06:06:59 PM 40.1258 -78.4192 267° West 306 352 36,000 50 Climbing Cleveland Center
Sun 06:07:59 PM 40.1217 -78.5306 267° West 311 358 36,000  Level Cleveland Center
Sun 06:08:59 PM 40.1175 -78.6500 267° West 322 371 36,000  Level Cleveland Center
Sun 06:09:59 PM 40.1111 -78.7669 266° West 327 376 36,000  Level Cleveland Center
Sun 06:10:59 PM 40.1086 -78.8839 268° West 327 376 36,000  Level Cleveland Center
Sun 06:11:59 PM 40.1019 -78.9981 266° West 327 376 36,000  Level Cleveland Center
Sun 06:12:59 PM 40.0972 -79.1119 267° West 327 376 36,000  Level Cleveland Center
Sun 06:13:59 PM 40.0925 -79.2236 267° West 327 376 36,000  Level Cleveland Center
Sun 06:14:59 PM 40.0914 -79.3267 269° West 327 376 36,000  Level Cleveland Center
Sun 06:15:59 PM 40.0886 -79.4433 268° West 327 376 36,000  Level Cleveland Center
Sun 06:16:59 PM 40.0833 -79.5575 267° West 327 376 36,000  Level Cleveland Center
Sun 06:17:59 PM 40.0781 -79.6742 267° West 327 376 36,000  Level Cleveland Center
Sun 06:18:59 PM 40.0728 -79.7881 267° West 327 376 36,000  Level Cleveland Center
Sun 06:19:59 PM 40.0672 -79.9075 267° West 327 376 36,000  Level Cleveland Center
Sun 06:20:59 PM 40.0594 -80.0242 265° West 327 376 36,000  Level Cleveland Center
Sun 06:21:59 PM 40.0539 -80.1464 267° West 332 382 36,000  Level Cleveland Center
Sun 06:22:59 PM 40.0500 -80.2658 268° West 332 382 36,000  Level Cleveland Center
Sun 06:23:59 PM 40.0419 -80.3986 266° West 332 382 36,000  Level Cleveland Center
Sun 06:26:12 PM 40.0247 -80.6611 265° West 338 389 36,000  Level Indianapolis Center
Sun 06:27:14 PM 40.0172 -80.7839 265° West 338 389 36,000  Level Indianapolis Center
Sun 06:28:16 PM 40.0156 -80.9050 269° West 334 384 36,000  Level Indianapolis Center
Sun 06:29:18 PM 40.0136 -81.0253 269° West 331 381 36,000  Level Indianapolis Center
Sun 06:30:20 PM 40.0119 -81.1456 269° West 329 379 36,000  Level Indianapolis Center
Sun 06:31:22 PM 40.0106 -81.2850 269° West 328 377 36,000  Level Indianapolis Center
Sun 06:32:24 PM 40.0072 -81.4067 268° West 332 382 36,000  Level Indianapolis Center
Sun 06:33:26 PM 40.0053 -81.5286 269° West 332 382 36,000  Level Indianapolis Center
Sun 06:34:29 PM 39.9986 -81.6506 266° West 335 386 36,000  Level Indianapolis Center
Sun 06:35:30 PM 39.9903 -81.7722 265° West 335 386 36,000  Level Indianapolis Center
Sun 06:36:33 PM 39.9817 -81.8969 265° West 338 389 36,000  Level Indianapolis Center
Sun 06:37:34 PM 39.9736 -82.0192 265° West 336 387 36,000  Level Indianapolis Center
Sun 06:38:36 PM 39.9647 -82.1433 265° West 340 391 36,000  Level Indianapolis Center
Sun 06:39:38 PM 39.9556 -82.2869 265° West 339 390 36,000  Level Indianapolis Center
Sun 06:40:40 PM 39.9458 -82.4108 264° West 340 391 36,000  Level Indianapolis Center
Sun 06:41:42 PM 39.9367 -82.5353 265° West 343 395 36,000  Level Indianapolis Center
Sun 06:42:44 PM 39.9278 -82.6594 265° West 342 394 36,000  Level Indianapolis Center
Sun 06:43:46 PM 39.9181 -82.7850 264° West 345 397 36,000  Level Indianapolis Center
Sun 06:44:48 PM 39.9081 -82.9094 264° West 343 395 36,000  Level Indianapolis Center
Sun 06:45:50 PM 39.8983 -83.0336 264° West 344 396 36,000  Level Indianapolis Center
Sun 06:46:52 PM 39.8864 -83.1797 264° West 344 396 36,000  Level Indianapolis Center
Sun 06:47:54 PM 39.8769 -83.3056 264° West 347 399 36,000  Level Indianapolis Center
Sun 06:48:56 PM 39.8672 -83.4225 264° West 347 399 36,000  Level Indianapolis Center
Sun 06:49:58 PM 39.8572 -83.5472 264° West 346 398 36,000  Level Indianapolis Center
Sun 06:51:00 PM 39.8431 -83.6964 263° West 352 405 36,000  Level Indianapolis Center
Sun 06:52:02 PM 39.8333 -83.8183 264° West 342 394 36,000  Level Indianapolis Center
Sun 06:53:04 PM 39.8242 -83.9381 264° West 331 381 36,000  Level Indianapolis Center
Sun 06:54:06 PM 39.8136 -84.0556 263° West 325 374 36,000  Level Indianapolis Center
Sun 06:55:08 PM 39.8028 -84.1731 263° West 326 375 36,000  Level Indianapolis Center
Sun 06:56:10 PM 39.7919 -84.2922 263° West 330 380 36,000  Level Indianapolis Center
Sun 06:57:12 PM 39.7814 -84.4139 264° West 335 386 36,000  Level Indianapolis Center
Sun 06:58:14 PM 39.7686 -84.5569 263° West 340 391 36,000  Level Indianapolis Center
Sun 06:59:16 PM 39.7564 -84.6808 263° West 343 395 36,000  Level Indianapolis Center
Sun 07:00:18 PM 39.7442 -84.8053 263° West 344 396 36,000  Level Indianapolis Center
Sun 07:01:20 PM 39.7322 -84.9306 263° West 347 399 36,000  Level Indianapolis Center
Sun 07:02:22 PM 39.7200 -85.0556 263° West 346 398 36,000  Level Indianapolis Center
Sun 07:03:23 PM 39.7072 -85.1819 263° West 348 400 36,000  Level Indianapolis Center
Sun 07:04:25 PM 39.6947 -85.3097 263° West 353 406 36,000  Level Indianapolis Center
Sun 07:05:27 PM 39.6828 -85.4364 263° West 352 405 36,000  Level Indianapolis Center
Sun 07:06:29 PM 39.6669 -85.5864 262° West 356 410 36,000  Level Indianapolis Center
Sun 07:07:31 PM 39.6567 -85.7008 263° West 357 411 36,000  Level Indianapolis Center
Sun 07:08:32 PM 39.6425 -85.8286 262° West 357 411 36,000  Level Indianapolis Center
Sun 07:09:34 PM 39.6281 -85.9589 262° West 362 417 36,000  Level Indianapolis Center
Sun 07:10:36 PM 39.6125 -86.1172 263° West 367 422 36,000  Level Indianapolis Center
Sun 07:11:38 PM 39.5983 -86.2472 262° West 366 421 36,000  Level Indianapolis Center
Sun 07:12:40 PM 39.5833 -86.3767 261° West 371 427 36,000  Level Indianapolis Center
Sun 07:13:41 PM 39.5692 -86.5119 262° West 372 428 36,000  Level Indianapolis Center
Sun 07:14:43 PM 39.5544 -86.6467 262° West 376 433 36,000  Level Indianapolis Center
Sun 07:15:45 PM 39.5397 -86.7811 262° West 377 434 36,000  Level Indianapolis Center
Sun 07:16:47 PM 39.5242 -86.9167 262° West 381 438 36,000  Level Indianapolis Center
Sun 07:17:49 PM 39.5050 -87.0822 262° West 387 445 36,000  Level Indianapolis Center
Sun 07:18:50 PM 39.4892 -87.2206 262° West 389 448 36,000 -293 Level Indianapolis Center
Sun 07:19:52 PM 39.4733 -87.3597 262° West 389 448 35,400 -1,016 Descending Indianapolis Center
Sun 07:20:54 PM 39.4569 -87.4972 261° West 389 448 33,900 -1,935 Descending Indianapolis Center
Sun 07:21:56 PM 39.4411 -87.6325 261° West 382 440 31,400 -2,439 Descending Indianapolis Center
Sun 07:22:57 PM 39.4244 -87.7736 261° West 390 449 28,900 -1,943 Descending Indianapolis Center
Sun 07:23:41 PM 39.4100 -87.8981 261° West 409 471 28,000 -673 Descending Kansas City Center
Sun 07:24:44 PM 39.3900 -88.0478 260° West 418 481 27,700 -677 Descending Kansas City Center
Sun 07:25:45 PM 39.3522 -88.1953 252° West 425 489 26,600 -1,005 Descending Kansas City Center
Sun 07:27:49 PM 39.2767 -88.4789 251° West 420 483 24,600 -978 Descending Kansas City Center
Sun 07:28:49 PM 39.2403 -88.6133 251° West 419 482 23,600 -1,065 Descending Kansas City Center
Sun 07:29:53 PM 39.1964 -88.7775 251° West 408 470 22,400 -1,104 Descending Kansas City Center
Sun 07:30:54 PM 39.1608 -88.9131 251° West 403 464 21,300 -1,328 Descending Kansas City Center
Sun 07:31:55 PM 39.1231 -89.0522 251° West 389 448 19,700 -1,707 Descending Kansas City Center
Sun 07:32:57 PM 39.0869 -89.1886 251° West 375 432 17,800 -1,724 Descending Kansas City Center
Sun 07:33:22 PM 39.0772 -89.1853 165° South 376 433 17,200 -1,467 Descending FAA TRACON SMA TRACON (SMA)
Sun 07:33:42 PM 39.0658 -89.2244 249° West 379 436 16,700 -1,500 Descending FAA TRACON SMA TRACON (SMA)
Sun 07:34:02 PM 39.0572 -89.2647 255° West 380 437 16,200 -1,610 Descending FAA TRACON SMA TRACON (SMA)
Sun 07:34:23 PM 39.0467 -89.3153 255° West 379 436 15,600 -1,317 Descending FAA TRACON SMA TRACON (SMA)
Sun 07:34:43 PM 39.0367 -89.3542 252° West 376 433 15,300 -923 Descending FAA TRACON SMA TRACON (SMA)
Sun 07:35:02 PM 39.0250 -89.4022 253° West 367 422 15,000 -462 Descending FAA TRACON SMA TRACON (SMA)
Sun 07:35:22 PM 39.0161 -89.4406 253° West 364 419 15,000  Level FAA TRACON SMA TRACON (SMA)
Sun 07:35:43 PM 39.0058 -89.4783 251° West 363 418 15,000  Level FAA TRACON SMA TRACON (SMA)
Sun 07:36:02 PM 38.9975 -89.5169 254° West 364 419 15,000  Level FAA TRACON SMA TRACON (SMA)
Sun 07:36:22 PM 38.9850 -89.5644 251° West 365 420 15,000 -293 Level FAA TRACON SMA TRACON (SMA)
Sun 07:36:43 PM 38.9725 -89.6014 246° West 364 419 14,800 -1,050 Descending FAA TRACON SMA TRACON (SMA)
Sun 07:37:02 PM 38.9611 -89.6383 248° West 363 418 14,300 -2,000 Descending FAA TRACON SMA TRACON (SMA)
Sun 07:37:22 PM 38.9475 -89.6831 249° West 352 405 13,500 -2,100 Descending FAA TRACON SMA TRACON (SMA)
Sun 07:37:42 PM 38.9361 -89.7167 246° West 339 390 12,900 -1,773 Descending FAA TRACON SMA TRACON (SMA)
Sun 07:38:06 PM 38.9228 -89.7575 247° West 323 372 12,200 -1,535 Descending FAA TRACON SMA TRACON (SMA)
Sun 07:38:25 PM 38.9128 -89.7875 247° West 304 350 11,800 -1,167 Descending FAA TRACON SMA TRACON (SMA)
Sun 07:38:42 PM 38.9033 -89.8167 247° West 289 333 11,500 -1,297 Descending FAA TRACON SMA TRACON (SMA)
Sun 07:39:02 PM 38.8947 -89.8444 248° West 276 318 11,000 -1,463 Descending FAA TRACON SMA TRACON (SMA)
Sun 07:39:23 PM 38.8839 -89.8775 247° West 263 303 10,500 -1,350 Descending FAA TRACON SMA TRACON (SMA)
Sun 07:39:42 PM 38.8764 -89.9031 249° West 253 291 10,100 -1,385 Descending FAA TRACON SMA TRACON (SMA)
Sun 07:40:02 PM 38.8683 -89.9281 248° West 246 283 9,600 -1,500 Descending FAA TRACON SMA TRACON (SMA)
Sun 07:40:22 PM 38.8581 -89.9575 246° West 235 270 9,100 -900 Descending FAA TRACON SMA TRACON (SMA)
Sun 07:40:42 PM 38.8506 -89.9819 249° West 236 272 9,000 -150 Descending FAA TRACON SMA TRACON (SMA)
Sun 07:41:02 PM 38.8428 -90.0069 248° West 243 280 9,000  Level FAA TRACON SMA TRACON (SMA)
Sun 07:41:22 PM 38.8325 -90.0383 247° West 248 285 9,000  Level FAA TRACON SMA TRACON (SMA)
Sun 07:41:42 PM 38.8247 -90.0642 249° West 250 288 9,000 -300 Level FAA TRACON SMA TRACON (SMA)
Sun 07:42:02 PM 38.8161 -90.0892 246° West 248 285 8,800 -1,171 Descending FAA TRACON SMA TRACON (SMA)
Sun 07:42:23 PM 38.8064 -90.1192 247° West 240 276 8,200 -1,500 Descending FAA TRACON SMA TRACON (SMA)
Sun 07:42:42 PM 38.8000 -90.1433 251° West 233 268 7,800 -1,385 Descending FAA TRACON SMA TRACON (SMA)
Sun 07:43:02 PM 38.8058 -90.1683 287° West 247 284 7,300 -1,902 Descending FAA TRACON SMA TRACON (SMA)
Sun 07:43:23 PM 38.8208 -90.1978 303° West 255 293 6,500 -2,100 Descending FAA TRACON SMA TRACON (SMA)
Sun 07:43:42 PM 38.8333 -90.2214 304° West 258 297 5,900 -2,000 Descending FAA TRACON SMA TRACON (SMA)
Sun 07:44:02 PM 38.8458 -90.2456 304° West 264 304 5,200 -2,049 Descending FAA TRACON SMA TRACON (SMA)
Sun 07:44:23 PM 38.8614 -90.2764 303° West 266 306 4,500 -1,500 Descending FAA TRACON SMA TRACON (SMA)
Sun 07:44:42 PM 38.8731 -90.3000 302° West 260 299 4,200 -923 Descending FAA TRACON SMA TRACON (SMA)
Sun 07:45:02 PM 38.8844 -90.3228 303° West 248 285 3,900 -878 Descending FAA TRACON SMA TRACON (SMA)
Sun 07:45:23 PM 38.8975 -90.3494 302° West 232 267 3,600 -600 Descending FAA TRACON SMA TRACON (SMA)
Sun 07:45:42 PM 38.9075 -90.3700 302° West 222 255 3,500 -154 Descending FAA TRACON SMA TRACON (SMA)
Sun 07:46:02 PM 38.9175 -90.3883 305° West 209 241 3,500  Level FAA TRACON SMA TRACON (SMA)
Sun 07:46:23 PM 38.9208 -90.4128 280° West 198 228 3,500  Level FAA TRACON SMA TRACON (SMA)
Sun 07:46:42 PM 38.9108 -90.4256 225° Southwest 181 208 3,500 -308 Level FAA TRACON SMA TRACON (SMA)
Sun 07:47:02 PM 38.8997 -90.4367 218° Southwest 165 190 3,300 -585 Descending FAA TRACON SMA TRACON (SMA)
Sun 07:47:23 PM 38.8864 -90.4492 216° Southwest 155 178 3,100 -600 Descending FAA TRACON SMA TRACON (SMA)
Sun 07:47:42 PM 38.8750 -90.4561 205° Southwest 149 171 2,900 -462 Descending FAA TRACON SMA TRACON (SMA)
Sun 07:48:02 PM 38.8628 -90.4569 183° South 149 171 2,800 -439 Descending FAA TRACON SMA TRACON (SMA)
Sun 07:48:23 PM 38.8467 -90.4528 169° South 149 171 2,600 -600 Descending FAA TRACON SMA TRACON (SMA)
Sun 07:48:42 PM 38.8344 -90.4469 160° South 152 175 2,400 -308 Descending FAA TRACON SMA TRACON (SMA)
Sun 07:49:02 PM 38.8231 -90.4400 155° Southeast 148 170 2,400 -146 Level FAA TRACON SMA TRACON (SMA)
Sun 07:49:23 PM 38.8094 -90.4286 147° Southeast 150 173 2,300 -300 Descending FAA TRACON SMA TRACON (SMA)
Sun 07:49:42 PM 38.7994 -90.4178 140° Southeast 153 176 2,200 -308 Descending FAA TRACON SMA TRACON (SMA)
Sun 07:50:02 PM 38.7914 -90.4047 128° Southeast 154 177 2,100 -585 Descending FAA TRACON SMA TRACON (SMA)
Sun 07:50:23 PM 38.7819 -90.3894 128° Southeast 144 166 1,800 -857 Descending FAA TRACON SMA TRACON (SMA)

Login

Don't have an account? Register now (free) for customized features, flight alerts, and more!